• Join FlightAware (Why Join?)
  • Login
  • US Flag 
03:59AM EDT


 

Airport Tracker/Info


-or-


 

Live Flight TrackerFlight Track Log ✈ AMX169 ✈ 24-Apr-2013 ✈ MMCL / CUL - MMMX / MEX

Flight Track Log - Related Links

Times and Time Zones

All times are in EDT time to prevent confusion due to time zone crossing. See the AMX169 flight status page for this flight to view local times or setup timezone preferences in your user account.

Time Position Orientation Groundspeed Altitude Reporting Facility
EDT Latitude Longitude Course Direction KTS MPH feet Rate Location/Type
07:58AM 24.7550 -107.4820 211° Southwest 148 170 500  Level FlightAware
07:59AM 24.7380 -107.4960 217° Southwest 158 182 1,700 2,100 Climbing FlightAware
07:59AM 24.7150 -107.5120 212° Southwest 227 261 2,600 2,700 Climbing FlightAware
08:00AM 24.6930 -107.5290 215° Southwest 241 277 4,200 4,140 Climbing FlightAware
08:00AM 24.6630 -107.5500 212° Southwest 247 284 6,400 4,320 Climbing FlightAware
08:00AM 24.6520 -107.5540 198° South 247 284 7,100 3,900 Climbing FlightAware
08:01AM 24.6180 -107.5440 165° South 264 304 9,000 3,420 Climbing FlightAware
08:01AM 24.6080 -107.5300 128° Southeast 279 321 9,700 3,180 Climbing FlightAware
08:01AM 24.6010 -107.5070 109° East 293 337 10,600 2,040 Climbing FlightAware
08:02AM 24.5990 -107.4440 92° East 352 405 11,600 2,220 Climbing FlightAware
08:03AM 24.5890 -107.3670 98° East 376 433 13,600 3,000 Climbing FlightAware
08:04AM 24.5760 -107.2820 100° East 392 451 15,900 3,300 Climbing FlightAware
08:04AM 24.5630 -107.2020 100° East 399 459 18,300 3,480 Climbing FlightAware
08:05AM 24.5470 -107.1110 101° East 402 463 20,900 3,360 Climbing FlightAware
08:06AM 24.5170 -107.0390 115° Southeast 403 464 23,100 2,820 Climbing FlightAware
08:06AM 24.4770 -106.9680 122° Southeast 420 483 24,700 2,400 Climbing FlightAware
08:07AM 24.4290 -106.8830 122° Southeast 437 503 26,500 2,400 Climbing FlightAware
08:08AM 24.3870 -106.8100 122° Southeast 446 513 28,100 2,160 Climbing FlightAware
08:08AM 24.3360 -106.7210 122° Southeast 460 529 29,600 1,920 Climbing FlightAware
08:09AM 24.2900 -106.6400 122° Southeast 471 542 30,900 1,680 Climbing FlightAware
08:10AM 24.2440 -106.5590 122° Southeast 485 558 31,900 1,440 Climbing FlightAware
08:11AM 24.1900 -106.4660 122° Southeast 496 571 33,000 1,680 Climbing FlightAware
08:11AM 24.1390 -106.3770 122° Southeast 499 574 34,300 2,100 Climbing FlightAware
08:12AM 24.0850 -106.2820 122° Southeast 492 566 36,000 2,220 Climbing FlightAware
08:13AM 24.0370 -106.1990 122° Southeast 480 552 37,500 2,160 Climbing FlightAware
08:13AM 23.9900 -106.1180 122° Southeast 471 542 38,900 1,800 Climbing FlightAware
08:14AM 23.9380 -106.0280 122° Southeast 468 539 40,100 1,260 Climbing FlightAware
08:15AM 23.8850 -105.9370 122° Southeast 473 544 40,800 600 Climbing FlightAware
08:15AM 23.8380 -105.8560 122° Southeast 477 549 41,000 120 Climbing FlightAware
08:16AM 23.7840 -105.7610 122° Southeast 478 550 41,000  Level FlightAware
08:17AM 23.7380 -105.6830 123° Southeast 478 550 41,000  Level FlightAware
08:18AM 23.6900 -105.6010 123° Southeast 477 549 41,000  Level FlightAware
08:18AM 23.6420 -105.5180 122° Southeast 478 550 41,000  Level FlightAware
08:19AM 23.6010 -105.4480 123° Southeast 478 550 41,000  Level FlightAware
08:20AM 23.5420 -105.3470 122° Southeast 476 548 41,000  Level FlightAware
08:20AM 23.5010 -105.2750 122° Southeast 476 548 41,000  Level FlightAware
08:21AM 23.4610 -105.2060 122° Southeast 476 548 41,000  Level FlightAware
08:22AM 23.4210 -105.1370 122° Southeast 476 548 41,000  Level FlightAware
08:22AM 23.3720 -105.0500 122° Southeast 476 548 41,000  Level FlightAware
08:23AM 23.3320 -104.9810 122° Southeast 476 548 41,000  Level FlightAware
08:24AM 23.2920 -104.9120 122° Southeast 476 548 41,000  Level FlightAware
08:24AM 23.2520 -104.8430 122° Southeast 476 548 41,000  Level FlightAware
08:25AM 23.2130 -104.7740 122° Southeast 476 548 41,000  Level FlightAware
08:26AM 23.1630 -104.6880 122° Southeast 476 548 41,000  Level FlightAware
08:27AM 23.1240 -104.6190 122° Southeast 476 548 41,000  Level FlightAware
08:27AM 23.0840 -104.5500 122° Southeast 476 548 41,000  Level FlightAware
08:28AM 23.0440 -104.4800 122° Southeast 476 548 41,000  Level FlightAware
08:29AM 23.0040 -104.4110 122° Southeast 476 548 41,000  Level FlightAware
08:29AM 22.9550 -104.3250 122° Southeast 476 548 41,000  Level FlightAware
08:30AM 22.7840 -104.0720 126° Southeast 479 551 41,000  Level FlightAware
08:31AM 22.7330 -103.9870 123° Southeast 478 550 41,000  Level FlightAware
08:32AM 22.6850 -103.9060 123° Southeast 478 550 41,000  Level FlightAware
08:33AM 22.6020 -103.7700 123° Southeast 477 549 41,000  Level FlightAware
08:34AM 22.5440 -103.6750 123° Southeast 478 550 41,000  Level FlightAware
08:34AM 22.4880 -103.5820 123° Southeast 479 551 41,000  Level FlightAware
08:35AM 22.4320 -103.4890 123° Southeast 479 551 41,000  Level FlightAware
08:36AM 22.3830 -103.4100 124° Southeast 478 550 41,000  Level FlightAware
08:36AM 22.3290 -103.3210 123° Southeast 478 550 41,000  Level FlightAware
08:37AM 22.2750 -103.2310 123° Southeast 476 548 41,000  Level FlightAware
08:38AM 22.2260 -103.1500 123° Southeast 474 545 41,000  Level FlightAware
08:39AM 22.1800 -103.0740 123° Southeast 473 544 41,000  Level FlightAware
08:39AM 22.1190 -102.9740 123° Southeast 471 542 41,000  Level FlightAware
08:40AM 22.0600 -102.8770 123° Southeast 469 540 41,000  Level FlightAware
08:41AM 22.0110 -102.7980 124° Southeast 471 542 41,000  Level FlightAware
08:42AM 21.9600 -102.7170 124° Southeast 472 543 41,000  Level FlightAware
08:42AM 21.9080 -102.6330 124° Southeast 472 543 41,000  Level FlightAware
08:43AM 21.8590 -102.5550 124° Southeast 472 543 41,000  Level FlightAware
08:44AM 21.8050 -102.4680 124° Southeast 472 543 41,000  Level FlightAware
08:44AM 21.7560 -102.3910 124° Southeast 472 543 41,000  Level FlightAware
08:45AM 21.7070 -102.3070 122° Southeast 481 554 41,000  Level FlightAware
08:46AM 21.6670 -102.2120 114° Southeast 486 559 41,000  Level FlightAware
08:46AM 21.6300 -102.1230 114° Southeast 487 560 41,000  Level FlightAware
08:47AM 21.5870 -102.0210 114° Southeast 488 562 41,000  Level FlightAware
08:48AM 21.5500 -101.9320 114° Southeast 488 562 41,000  Level FlightAware
08:49AM 21.5100 -101.8360 114° Southeast 489 563 41,000  Level FlightAware
08:49AM 21.4730 -101.7470 114° Southeast 488 562 41,000  Level FlightAware
08:50AM 21.4360 -101.6580 114° Southeast 487 560 41,000  Level FlightAware
08:51AM 21.3930 -101.5580 115° Southeast 486 559 41,000  Level FlightAware
08:51AM 21.3620 -101.4840 114° Southeast 485 558 41,000  Level FlightAware
08:52AM 21.3160 -101.3740 114° Southeast 485 558 41,000  Level FlightAware
08:53AM 21.2730 -101.2930 120° Southeast 475 547 41,000  Level FlightAware
08:53AM 21.2250 -101.2130 123° Southeast 474 545 41,000  Level FlightAware
08:54AM 21.1710 -101.1210 122° Southeast 473 544 41,000  Level FlightAware
08:55AM 21.1260 -101.0450 122° Southeast 472 543 41,000  Level FlightAware
08:56AM 21.0710 -100.9530 123° Southeast 472 543 41,000  Level FlightAware
08:56AM 21.0240 -100.8740 123° Southeast 470 541 41,000  Level FlightAware
08:57AM 20.9780 -100.7960 122° Southeast 469 540 41,000  Level FlightAware
08:58AM 20.9310 -100.7170 122° Southeast 468 539 41,000  Level FlightAware
08:58AM 20.8790 -100.6300 123° Southeast 468 539 41,000  Level FlightAware
08:59AM 20.8330 -100.5530 123° Southeast 469 540 41,000  Level FlightAware
09:00AM 20.7800 -100.4640 122° Southeast 470 541 41,000  Level FlightAware
09:00AM 20.7330 -100.3850 122° Southeast 471 542 41,000  Level FlightAware
09:01AM 20.6810 -100.2980 123° Southeast 473 544 41,000 -1,080 Level FlightAware
09:02AM 20.6260 -100.2080 123° Southeast 470 541 39,400 -2,340 Descending FlightAware
09:02AM 20.5910 -100.1580 127° Southeast 462 532 38,100 -2,940 Descending FlightAware
09:03AM 20.5220 -100.0650 128° Southeast 466 536 35,500 -3,240 Descending FlightAware
09:04AM 20.4710 -99.9970 129° Southeast 476 548 33,300 -1,560 Descending FlightAware
09:05AM 20.4140 -99.9200 128° Southeast 476 548 33,300 -2,580 Level FlightAware
09:05AM 20.3520 -99.8390 129° Southeast 466 536 29,700 -3,600 Descending FlightAware
09:06AM 20.3010 -99.7690 128° Southeast 450 518 28,500 -900 Descending FlightAware
09:07AM 20.2490 -99.6990 128° Southeast 450 518 28,500  Level FlightAware
09:07AM 20.2060 -99.6400 128° Southeast 450 518 28,500 -2,640 Level FlightAware
09:08AM 20.1520 -99.5700 129° Southeast 408 470 25,200 -2,520 Descending FlightAware
09:09AM 20.1050 -99.5060 128° Southeast 408 470 25,200 -2,100 Level FlightAware
09:10AM 20.0480 -99.4450 135° Southeast 369 425 22,100 -3,540 Descending FlightAware
09:10AM 19.9860 -99.4160 156° South 365 420 20,200 -1,920 Descending FlightAware
09:11AM 19.9050 -99.3790 157° South 355 409 19,100 -1,620 Descending FlightAware
09:12AM 19.8370 -99.3490 157° South 327 376 17,500 -1,740 Descending FlightAware
09:13AM 19.7750 -99.3230 158° South 314 361 16,500 -1,560 Descending FlightAware
09:13AM 19.7180 -99.2980 158° South 310 357 15,300 -1,680 Descending FlightAware
09:14AM 19.6610 -99.2740 158° South 303 349 14,200 -1,200 Descending FlightAware
09:15AM 19.6120 -99.2530 158° South 252 290 13,600 -1,080 Descending FlightAware
09:15AM 19.5720 -99.2350 157° South 226 260 12,800 -1,200 Descending FlightAware
09:16AM 19.5280 -99.2210 163° South 211 243 11,900 -1,380 Descending FlightAware
09:17AM 19.4900 -99.2110 166° South 207 238 10,900 -1,200 Descending FlightAware
09:18AM 19.4510 -99.2010 166° South 193 222 10,200 -960 Descending FlightAware
09:18AM 19.4250 -99.1930 164° South 194 223 9,700 -1,080 Descending FlightAware
09:18AM 19.4150 -99.1910 169° South 195 224 9,500 -1,200 Descending FlightAware
09:19AM 19.3900 -99.1830 163° South 200 230 8,900 -960 Descending FlightAware
09:19AM 19.3840 -99.1710 118° Southeast 193 222 8,800 -900 Descending FlightAware
09:19AM 19.3910 -99.1500 71° East 178 205 8,300 -1,080 Descending FlightAware
09:20AM 19.3980 -99.1390 56° Northeast 164 189 8,100 -840 Descending FlightAware
09:20AM 19.4090 -99.1190 60° Northeast 150 173 7,700 -480 Descending FlightAware
09:21AM 19.4210 -99.0960 61° Northeast 150 173 7,600 -180 Descending FlightAware
09:23AM 19.4363 -99.0721 56° Northeast  Level Estimated
09:24AM 19.4363 -99.0721 43° Northeast  Level Estimated
09:25AM 19.4363 -99.0721 43° Northeast  Level Estimated